createdAt,value
2022-10-04T00:01:13.502Z,11.44
2022-10-04T00:03:44.983Z,11.19
2022-10-04T00:06:21.183Z,10.98
2022-10-04T00:09:04.947Z,10.40
2022-10-04T00:11:36.493Z,10.69
2022-10-04T00:14:10.120Z,11.06
2022-10-04T00:16:39.687Z,11.25
2022-10-04T00:19:19.904Z,11.43
2022-10-04T00:21:53.457Z,11.30
2022-10-04T00:24:23.190Z,10.73
2022-10-04T00:26:50.730Z,10.84
2022-10-04T00:29:33.633Z,10.86
2022-10-04T00:32:10.432Z,10.84
2022-10-04T00:34:53.934Z,10.70
2022-10-04T00:37:24.016Z,10.66
2022-10-04T00:40:05.779Z,10.77
2022-10-04T00:43:13.007Z,10.72
2022-10-04T00:45:46.324Z,10.83
2022-10-04T00:48:50.175Z,10.97
2022-10-04T00:51:31.471Z,10.72
2022-10-04T00:54:09.259Z,10.83
2022-10-04T00:56:55.374Z,10.81
2022-10-04T00:59:38.200Z,10.95
2022-10-04T01:02:38.746Z,10.93
2022-10-04T01:05:19.743Z,10.82
2022-10-04T01:07:55.423Z,10.97
2022-10-04T01:10:28.367Z,10.84
2022-10-04T01:12:55.947Z,11.06
2022-10-04T01:15:44.577Z,10.64
2022-10-04T01:18:27.763Z,10.67
2022-10-04T01:21:18.573Z,10.59
2022-10-04T01:23:48.106Z,10.55
2022-10-04T01:26:28.216Z,10.56
2022-10-04T01:28:57.124Z,10.31
2022-10-04T01:31:29.956Z,10.29
2022-10-04T01:33:57.920Z,10.24
2022-10-04T01:36:26.187Z,10.17
2022-10-04T01:38:54.360Z,10.08
2022-10-04T01:41:41.084Z,10.04
2022-10-04T01:44:17.977Z,10.23
2022-10-04T01:46:46.432Z,10.06
2022-10-04T01:49:18.999Z,10.09
2022-10-04T01:51:59.017Z,10.00
2022-10-04T01:54:42.912Z,10.03
2022-10-04T01:57:17.824Z,9.93
2022-10-04T02:00:24.616Z,10.12
2022-10-04T02:03:00.690Z,10.00
2022-10-04T02:05:37.047Z,10.16
2022-10-04T02:08:08.268Z,10.15
2022-10-04T02:10:39.810Z,9.94
2022-10-04T02:13:15.879Z,9.88
2022-10-04T02:15:43.762Z,9.80
2022-10-04T02:18:13.662Z,9.75
2022-10-04T02:20:42.247Z,9.76
2022-10-04T02:23:11.267Z,9.79
2022-10-04T02:25:39.465Z,9.76
2022-10-04T02:28:11.219Z,9.58
2022-10-04T02:30:42.466Z,9.57
2022-10-04T02:33:10.687Z,9.68
2022-10-04T02:35:45.403Z,9.58
2022-10-04T02:38:21.550Z,9.58
2022-10-04T02:41:30.300Z,9.51
2022-10-04T02:44:04.245Z,9.54
2022-10-04T02:46:55.122Z,9.49
2022-10-04T02:49:29.738Z,9.52
2022-10-04T02:52:06.475Z,9.46
2022-10-04T02:54:42.579Z,9.12
2022-10-04T02:57:17.781Z,8.87
2022-10-04T02:59:47.498Z,8.75
2022-10-04T03:02:41.022Z,8.78
2022-10-04T03:05:12.376Z,9.87
2022-10-04T03:07:40.234Z,10.10
2022-10-04T03:10:12.366Z,9.99
2022-10-04T03:12:40.920Z,10.10
2022-10-04T03:15:12.199Z,10.17
2022-10-04T03:17:41.816Z,10.08
2022-10-04T03:20:11.100Z,10.01
2022-10-04T03:22:41.631Z,9.66
2022-10-04T03:25:18.876Z,10.03
2022-10-04T03:27:46.793Z,9.79
2022-10-04T03:30:22.784Z,9.89
2022-10-04T03:32:50.604Z,10.04
2022-10-04T03:35:34.246Z,9.68
2022-10-04T03:38:05.424Z,9.44
2022-10-04T03:40:33.773Z,9.32
2022-10-04T03:43:02.530Z,9.40
2022-10-04T03:45:32.009Z,9.09
2022-10-04T03:48:05.677Z,9.27
2022-10-04T03:50:38.027Z,9.38
2022-10-04T03:53:09.687Z,9.30
2022-10-04T03:55:38.051Z,9.25
2022-10-04T03:58:05.985Z,9.28
2022-10-04T04:00:37.761Z,9.39
2022-10-04T04:03:07.555Z,9.42
2022-10-04T04:05:43.251Z,9.57
2022-10-04T04:08:36.482Z,9.63
2022-10-04T04:11:05.459Z,9.64
2022-10-04T04:13:52.292Z,9.59
2022-10-04T04:16:21.012Z,9.66
2022-10-04T04:18:50.219Z,9.57
2022-10-04T04:21:19.170Z,9.73
2022-10-04T04:23:59.011Z,9.80
2022-10-04T04:26:38.127Z,9.85
2022-10-04T04:29:08.993Z,9.74
2022-10-04T04:31:56.429Z,9.86
2022-10-04T04:34:26.989Z,9.85
2022-10-04T04:36:58.610Z,9.72
2022-10-04T04:39:26.560Z,9.79
2022-10-04T04:41:54.709Z,9.61
2022-10-04T04:44:23.169Z,9.73
2022-10-04T04:46:51.806Z,9.77
2022-10-04T04:49:19.458Z,9.79
2022-10-04T04:51:50.401Z,9.91
2022-10-04T04:54:20.360Z,9.80
2022-10-04T04:56:51.378Z,9.95
2022-10-04T04:59:20.989Z,9.83
2022-10-04T05:01:49.116Z,9.72
2022-10-04T05:04:22.889Z,9.75
2022-10-04T05:07:05.687Z,9.69
2022-10-04T05:09:38.076Z,9.66
2022-10-04T05:12:08.956Z,9.65
2022-10-04T05:14:44.101Z,9.68
2022-10-04T05:17:19.249Z,9.72
2022-10-04T05:19:47.245Z,9.91
2022-10-04T05:22:19.386Z,10.08
2022-10-04T05:24:48.969Z,10.05
2022-10-04T05:27:25.808Z,10.23
2022-10-04T05:30:09.196Z,10.25
2022-10-04T05:33:02.279Z,10.38
2022-10-04T05:35:41.739Z,10.45
2022-10-04T05:38:19.578Z,10.53
2022-10-04T05:41:03.531Z,10.64
2022-10-04T05:43:49.186Z,10.67
2022-10-04T05:46:19.925Z,10.67
2022-10-04T05:48:52.866Z,11.08
2022-10-04T05:51:34.389Z,11.17
2022-10-04T05:54:15.297Z,11.21
2022-10-04T05:56:52.584Z,11.30
2022-10-04T05:59:35.899Z,11.10
2022-10-04T06:02:15.641Z,11.20
2022-10-04T06:04:58.888Z,11.21
2022-10-04T06:07:34.123Z,11.07
2022-10-04T06:10:35.565Z,11.12
2022-10-04T06:13:12.395Z,10.85
2022-10-04T06:15:43.223Z,10.85
2022-10-04T06:18:16.058Z,11.19
2022-10-04T06:21:13.291Z,11.45
2022-10-04T06:24:10.270Z,11.66
2022-10-04T06:26:45.095Z,11.80
2022-10-04T06:29:21.860Z,11.86
2022-10-04T06:32:03.420Z,11.79
2022-10-04T06:34:49.576Z,11.76
2022-10-04T06:37:35.938Z,11.63
2022-10-04T06:40:19.805Z,11.83
2022-10-04T06:42:56.544Z,11.60
2022-10-04T06:46:10.345Z,12.23
2022-10-04T06:48:41.321Z,12.48
2022-10-04T06:51:40.443Z,12.34
2022-10-04T06:54:26.647Z,12.70
2022-10-04T06:57:19.085Z,12.63
2022-10-04T06:59:56.025Z,12.37
2022-10-04T07:02:31.383Z,12.54
2022-10-04T07:05:08.502Z,12.55
2022-10-04T07:07:38.832Z,12.69
2022-10-04T07:10:30.716Z,12.58
2022-10-04T07:13:04.251Z,12.30
2022-10-04T07:15:36.641Z,12.48
2022-10-04T07:18:08.741Z,12.39
2022-10-04T07:20:36.703Z,12.85
2022-10-04T07:23:44.192Z,12.73
2022-10-04T07:26:22.490Z,12.72
2022-10-04T07:28:50.581Z,12.76
2022-10-04T07:31:30.064Z,12.78
2022-10-04T07:34:10.735Z,12.89
2022-10-04T07:36:53.484Z,12.77
2022-10-04T07:39:53.754Z,12.75
2022-10-04T07:42:46.386Z,12.65
2022-10-04T07:45:13.963Z,12.62
2022-10-04T07:47:41.937Z,12.83
2022-10-04T07:50:24.583Z,12.85
2022-10-04T07:52:57.603Z,12.01
2022-10-04T07:55:41.602Z,12.38
2022-10-04T07:58:33.195Z,12.58
2022-10-04T08:01:04.438Z,12.60
2022-10-04T08:03:57.546Z,12.83
2022-10-04T08:06:52.626Z,12.99
2022-10-04T08:09:32.718Z,13.20
2022-10-04T08:12:15.449Z,13.32
2022-10-04T08:15:14.180Z,13.18
2022-10-04T08:17:57.295Z,13.28
2022-10-04T08:20:57.018Z,13.45
2022-10-04T08:26:31.905Z,13.85
2022-10-04T08:29:13.497Z,13.67
2022-10-04T08:31:56.738Z,13.61
2022-10-04T08:34:36.564Z,13.41
2022-10-04T08:37:58.138Z,13.67
2022-10-04T08:40:53.186Z,13.81
2022-10-04T08:43:39.913Z,14.10
2022-10-04T08:46:29.141Z,14.07
2022-10-04T08:49:18.134Z,13.44
2022-10-04T08:51:54.760Z,13.88
2022-10-04T08:54:43.971Z,14.24
2022-10-04T08:57:15.941Z,13.97
2022-10-04T09:00:19.599Z,14.13
2022-10-04T09:03:05.489Z,14.17
2022-10-04T09:05:59.362Z,14.30
2022-10-04T09:08:29.805Z,14.21
2022-10-04T09:11:22.154Z,14.37
2022-10-04T09:13:55.485Z,14.37
2022-10-04T09:16:37.668Z,14.82
2022-10-04T09:19:17.360Z,14.39
2022-10-04T09:21:56.121Z,14.98
2022-10-04T09:24:29.471Z,14.96
2022-10-04T09:27:05.590Z,14.68
2022-10-04T09:29:48.423Z,14.65
2022-10-04T09:32:53.711Z,15.17
2022-10-04T09:35:46.272Z,15.13
2022-10-04T09:38:48.477Z,15.23
2022-10-04T09:41:25.287Z,15.31
2022-10-04T09:44:22.437Z,15.49
2022-10-04T09:46:56.495Z,15.58
2022-10-04T09:49:51.918Z,15.81
2022-10-04T09:52:40.730Z,15.86
2022-10-04T09:55:23.845Z,16.17
2022-10-04T09:58:28.234Z,16.26
2022-10-04T10:01:25.689Z,16.39
2022-10-04T10:04:15.299Z,16.55
2022-10-04T10:06:51.941Z,16.58
2022-10-04T10:09:32.217Z,16.24
2022-10-04T10:12:24.656Z,16.51
2022-10-04T10:15:16.233Z,16.63
2022-10-04T10:17:43.605Z,16.36
2022-10-04T10:20:34.620Z,16.58
2022-10-04T10:23:30.029Z,16.87
2022-10-04T10:26:35.386Z,17.05
2022-10-04T10:29:27.313Z,17.30
2022-10-04T10:32:00.120Z,17.33
2022-10-04T10:34:45.956Z,17.01
2022-10-04T10:37:39.987Z,16.95
2022-10-04T10:40:40.582Z,16.86
2022-10-04T10:43:36.278Z,16.58
2022-10-04T10:46:16.163Z,16.66
2022-10-04T10:49:28.543Z,16.54
2022-10-04T10:52:14.522Z,16.80
2022-10-04T10:54:51.176Z,16.64
2022-10-04T10:57:59.307Z,16.37
2022-10-04T11:00:40.991Z,16.33
2022-10-04T11:03:17.261Z,16.65
2022-10-04T11:06:23.401Z,16.89
2022-10-04T11:09:09.511Z,17.04
2022-10-04T11:11:58.665Z,17.26
2022-10-04T11:14:55.812Z,17.40
2022-10-04T11:17:26.630Z,17.02
2022-10-04T11:20:31.747Z,16.79
2022-10-04T11:23:25.387Z,17.50
2022-10-04T11:26:11.279Z,17.59
2022-10-04T11:28:42.048Z,17.59
2022-10-04T11:31:52.531Z,17.76
2022-10-04T11:34:57.347Z,17.84
2022-10-04T11:37:55.995Z,18.24
2022-10-04T11:40:25.817Z,17.89
2022-10-04T11:43:15.823Z,17.90
2022-10-04T11:45:54.304Z,17.89
2022-10-04T11:48:27.863Z,17.96
2022-10-04T11:51:07.764Z,18.24
2022-10-04T11:54:11.731Z,18.12
2022-10-04T11:57:08.578Z,18.02
2022-10-04T11:59:59.088Z,18.21
2022-10-04T12:02:38.887Z,18.44
2022-10-04T12:05:33.987Z,18.00
2022-10-04T12:08:13.627Z,17.79
2022-10-04T12:10:43.606Z,18.30
2022-10-04T12:13:30.254Z,18.09
2022-10-04T12:16:16.076Z,18.28
2022-10-04T12:18:56.465Z,18.39
2022-10-04T12:21:42.476Z,18.21
2022-10-04T12:24:16.248Z,18.13
2022-10-04T12:27:08.607Z,18.09
2022-10-04T12:30:00.870Z,18.04
2022-10-04T12:32:36.600Z,17.61
2022-10-04T12:35:22.795Z,18.24
2022-10-04T12:38:26.591Z,18.22
2022-10-04T12:41:08.683Z,17.98
2022-10-04T12:44:01.295Z,17.87
2022-10-04T12:47:02.909Z,17.73
2022-10-04T12:49:57.388Z,17.29
2022-10-04T12:52:25.903Z,17.15
2022-10-04T12:55:09.629Z,17.35
2022-10-04T12:57:40.319Z,17.30
2022-10-04T13:00:18.787Z,17.19
2022-10-04T13:03:33.798Z,17.31
2022-10-04T13:06:29.174Z,17.07
2022-10-04T13:08:59.305Z,17.02
2022-10-04T13:11:55.142Z,16.93
2022-10-04T13:14:40.579Z,16.87
2022-10-04T13:17:38.450Z,17.08
2022-10-04T13:20:24.797Z,16.69
2022-10-04T13:23:05.685Z,17.05
2022-10-04T13:25:48.312Z,16.81
2022-10-04T13:28:26.651Z,16.84
2022-10-04T13:31:20.139Z,17.01
2022-10-04T13:34:18.639Z,17.38
2022-10-04T13:37:06.534Z,17.47
2022-10-04T13:39:46.675Z,17.30
2022-10-04T13:42:14.181Z,17.53
2022-10-04T13:44:53.376Z,17.58
2022-10-04T13:48:13.235Z,17.46
2022-10-04T13:51:08.287Z,17.69
2022-10-04T13:53:54.071Z,17.54
2022-10-04T13:56:49.704Z,17.37
2022-10-04T13:59:52.770Z,17.40
2022-10-04T14:02:41.784Z,17.15
2022-10-04T14:05:37.476Z,17.37
2022-10-04T14:08:46.192Z,17.36
2022-10-04T14:11:22.794Z,17.26
2022-10-04T14:14:14.074Z,17.42
2022-10-04T14:16:59.710Z,17.59
2022-10-04T14:19:35.940Z,17.67
2022-10-04T14:22:42.749Z,17.99
2022-10-04T14:25:25.521Z,17.99
2022-10-04T14:28:22.216Z,17.97
2022-10-04T14:30:59.061Z,17.78
2022-10-04T14:33:48.340Z,17.53
2022-10-04T14:36:21.405Z,17.39
2022-10-04T14:39:13.568Z,17.39
2022-10-04T14:41:47.085Z,17.25
2022-10-04T14:44:36.412Z,17.00
2022-10-04T14:47:22.697Z,17.41
2022-10-04T14:50:03.016Z,17.47
2022-10-04T14:52:49.318Z,17.24
2022-10-04T14:56:05.257Z,16.98
2022-10-04T14:59:16.432Z,17.33
2022-10-04T15:02:22.003Z,17.10
2022-10-04T15:04:49.625Z,16.75
2022-10-04T15:07:20.961Z,16.58
2022-10-04T15:10:04.063Z,16.79
2022-10-04T15:12:51.970Z,16.80
2022-10-04T15:15:24.438Z,16.75
2022-10-04T15:17:53.164Z,16.48
2022-10-04T15:20:34.433Z,16.58
2022-10-04T15:23:27.879Z,16.43
2022-10-04T15:26:18.173Z,16.44
2022-10-04T15:28:49.171Z,16.32
2022-10-04T15:31:22.651Z,16.35
2022-10-04T15:34:10.436Z,16.64
2022-10-04T15:36:47.122Z,16.54
2022-10-04T15:39:49.273Z,16.73
2022-10-04T15:42:32.995Z,16.70
2022-10-04T15:45:07.957Z,16.48
2022-10-04T15:47:56.914Z,16.75
2022-10-04T15:50:30.773Z,16.58
2022-10-04T15:53:25.783Z,16.17
2022-10-04T15:56:15.059Z,16.36
2022-10-04T15:59:07.637Z,16.15
2022-10-04T16:01:54.387Z,16.00
2022-10-04T16:04:50.337Z,15.65
2022-10-04T16:07:26.747Z,15.66
2022-10-04T16:10:14.126Z,15.52
2022-10-04T16:13:00.556Z,15.51
2022-10-04T16:15:33.284Z,15.43
2022-10-04T16:18:32.203Z,15.34
2022-10-04T16:21:23.485Z,15.20
2022-10-04T16:24:11.021Z,15.10
2022-10-04T16:26:41.554Z,14.95
2022-10-04T16:29:31.106Z,15.00
2022-10-04T16:32:22.258Z,14.87
2022-10-04T16:34:59.718Z,14.69
2022-10-04T16:37:42.075Z,14.56
2022-10-04T16:40:09.721Z,14.39
2022-10-04T16:42:59.048Z,14.35
2022-10-04T16:45:58.858Z,14.29
2022-10-04T16:48:39.027Z,13.86
2022-10-04T16:51:25.721Z,13.88
2022-10-04T16:54:09.892Z,13.74
2022-10-04T16:56:52.864Z,13.96
2022-10-04T16:59:39.026Z,14.23
2022-10-04T17:02:44.994Z,13.75
2022-10-04T17:05:35.002Z,13.49
2022-10-04T17:08:15.507Z,13.31
2022-10-04T17:10:49.555Z,13.22
2022-10-04T17:13:36.249Z,13.14
2022-10-04T17:16:12.019Z,13.01
2022-10-04T17:19:05.605Z,13.00
2022-10-04T17:21:42.382Z,12.71
2022-10-04T17:24:16.383Z,12.69
2022-10-04T17:26:56.577Z,12.71
2022-10-04T17:29:44.004Z,12.44
2022-10-04T17:32:34.313Z,12.33
2022-10-04T17:35:36.031Z,12.15
2022-10-04T17:38:29.221Z,12.16
2022-10-04T17:41:07.675Z,12.10
2022-10-04T17:44:13.258Z,12.25
2022-10-04T17:46:52.937Z,12.11
2022-10-04T17:49:37.176Z,12.12
2022-10-04T17:52:13.814Z,12.00
2022-10-04T17:54:45.961Z,11.94
2022-10-04T17:57:22.431Z,11.90
2022-10-04T18:00:14.069Z,11.95
2022-10-04T18:03:03.985Z,12.13
2022-10-04T18:05:48.656Z,12.09
2022-10-04T18:08:46.718Z,12.26
2022-10-04T18:11:30.702Z,12.17
2022-10-04T18:14:09.688Z,12.07
2022-10-04T18:16:54.408Z,12.09
2022-10-04T18:19:37.438Z,12.08
2022-10-04T18:22:18.217Z,11.97
2022-10-04T18:25:07.762Z,12.07
2022-10-04T18:27:48.779Z,11.85
2022-10-04T18:30:20.675Z,11.81
2022-10-04T18:32:54.492Z,11.76
2022-10-04T18:35:29.325Z,11.77
2022-10-04T18:38:06.030Z,11.72
2022-10-04T18:40:34.972Z,11.72
2022-10-04T18:43:02.671Z,11.65
2022-10-04T18:45:32.338Z,11.64
2022-10-04T18:48:02.528Z,11.80
2022-10-04T18:50:41.043Z,11.52
2022-10-04T18:53:24.258Z,11.55
2022-10-04T18:56:03.508Z,11.67
2022-10-04T18:58:31.342Z,11.66
2022-10-04T19:01:18.701Z,11.81
2022-10-04T19:03:55.664Z,11.79
2022-10-04T19:06:27.669Z,11.80
2022-10-04T19:09:03.779Z,11.68
2022-10-04T19:11:46.888Z,11.67
2022-10-04T19:14:25.999Z,11.66
2022-10-04T19:17:21.988Z,11.66
2022-10-04T19:20:19.199Z,11.52
2022-10-04T19:23:05.360Z,11.59
2022-10-04T19:25:40.109Z,11.49
2022-10-04T19:28:14.519Z,11.55
2022-10-04T19:31:03.956Z,11.54
2022-10-04T19:33:40.476Z,11.61
2022-10-04T19:36:30.278Z,11.47
2022-10-04T19:39:26.945Z,11.36
2022-10-04T19:42:00.085Z,11.28
2022-10-04T19:44:32.149Z,11.28
2022-10-04T19:47:04.565Z,11.43
2022-10-04T19:49:41.224Z,11.26
2022-10-04T19:52:40.097Z,11.18
2022-10-04T19:55:23.028Z,11.05
2022-10-04T19:57:56.289Z,11.00
2022-10-04T20:00:24.612Z,10.95
2022-10-04T20:02:52.644Z,10.90
2022-10-04T20:05:22.731Z,10.88
2022-10-04T20:07:58.276Z,10.87
2022-10-04T20:10:32.668Z,10.77
2022-10-04T20:13:10.660Z,10.90
2022-10-04T20:15:38.504Z,10.79
2022-10-04T20:18:30.770Z,10.79
2022-10-04T20:20:59.016Z,10.75
2022-10-04T20:23:45.729Z,11.02
2022-10-04T20:26:22.330Z,10.96
2022-10-04T20:28:49.932Z,10.83
2022-10-04T20:31:24.157Z,10.76
2022-10-04T20:33:51.941Z,11.00
2022-10-04T20:36:19.815Z,10.92
2022-10-04T20:38:55.958Z,11.24
2022-10-04T20:41:29.824Z,11.19
2022-10-04T20:43:59.554Z,10.87
2022-10-04T20:46:38.307Z,10.92
2022-10-04T20:49:15.435Z,10.88
2022-10-04T20:51:50.868Z,10.82
2022-10-04T20:54:18.891Z,10.87
2022-10-04T20:56:48.751Z,10.92
2022-10-04T20:59:17.501Z,10.93
2022-10-04T21:02:01.409Z,10.78
2022-10-04T21:04:30.314Z,10.79
2022-10-04T21:07:05.346Z,10.81
2022-10-04T21:09:35.544Z,10.76
2022-10-04T21:12:04.012Z,10.83
2022-10-04T21:14:33.250Z,10.71
2022-10-04T21:17:05.609Z,10.73
2022-10-04T21:19:33.249Z,10.77
2022-10-04T21:22:05.697Z,10.66
2022-10-04T21:24:38.271Z,10.72
2022-10-04T21:27:11.570Z,10.64
2022-10-04T21:29:40.822Z,10.65
2022-10-04T21:32:08.835Z,10.70
2022-10-04T21:35:05.769Z,10.58
2022-10-04T21:37:24.243Z,10.61
2022-10-04T21:39:51.810Z,10.59
2022-10-04T21:42:19.385Z,10.57
2022-10-04T21:44:47.275Z,10.48
2022-10-04T21:47:15.308Z,10.51
2022-10-04T21:49:43.117Z,10.22
2022-10-04T21:52:11.149Z,10.04
2022-10-04T21:54:38.698Z,9.98
2022-10-04T21:57:06.291Z,9.96
2022-10-04T21:59:34.233Z,9.99
2022-10-04T22:02:01.870Z,10.08
2022-10-04T22:04:29.901Z,10.02
2022-10-04T22:06:57.558Z,9.95
2022-10-04T22:09:26.307Z,9.98
2022-10-04T22:11:54.211Z,10.08
2022-10-04T22:14:21.820Z,9.84
2022-10-04T22:16:50.200Z,9.62
2022-10-04T22:19:18.710Z,9.63
2022-10-04T22:21:46.377Z,9.54
2022-10-04T22:24:17.166Z,9.62
2022-10-04T22:26:45.289Z,9.57
2022-10-04T22:29:14.645Z,9.57
2022-10-04T22:31:52.484Z,9.38
2022-10-04T22:34:21.724Z,9.39
2022-10-04T22:36:50.294Z,9.13
2022-10-04T22:39:19.322Z,9.11
2022-10-04T22:41:59.061Z,8.92
2022-10-04T22:44:34.077Z,9.07
2022-10-04T22:47:03.535Z,8.89
2022-10-04T22:49:34.044Z,8.96
2022-10-04T22:52:05.890Z,9.23
2022-10-04T22:54:34.847Z,9.01
2022-10-04T22:57:02.805Z,8.88
2022-10-04T22:59:39.164Z,8.88
2022-10-04T23:02:12.704Z,8.89
2022-10-04T23:04:43.575Z,8.75
2022-10-04T23:07:11.927Z,8.73
2022-10-04T23:09:39.603Z,8.75
2022-10-04T23:12:08.516Z,8.81
2022-10-04T23:14:37.369Z,8.78
2022-10-04T23:17:26.100Z,8.78
2022-10-04T23:20:06.446Z,8.68
2022-10-04T23:22:34.214Z,8.70
2022-10-04T23:25:02.287Z,8.66
2022-10-04T23:27:29.967Z,8.57
2022-10-04T23:30:04.547Z,8.51
2022-10-04T23:32:32.701Z,8.57
2022-10-04T23:35:00.646Z,8.57
2022-10-04T23:37:31.203Z,8.54
2022-10-04T23:39:59.388Z,8.49
2022-10-04T23:42:29.078Z,8.47
2022-10-04T23:44:58.054Z,8.44
2022-10-04T23:47:32.347Z,8.33
2022-10-04T23:50:00.138Z,8.24
2022-10-04T23:52:36.517Z,8.29
2022-10-04T23:55:16.266Z,8.12
2022-10-04T23:57:44.197Z,8.17
